Terminal Aerodrome Forecast
Issued by NWS

Home | Current Version | Previous Version | Text Only | Print | Product List | Glossary On
Versions: 1 2 3 4 5 6 7 8 9 10 11 12 13 14 15 16 17 18 19 20 21 22 23 24
633
FTUS41 KRLX 240038 AAA
TAFCKB
TAF AMD
KCKB 240038Z 2401/2424 22009G15KT P6SM OVC030
      TEMPO 2401/2402 29020G35KT 1SM SHRA
     FM240200 22008KT 3SM SHRA OVC030
     FM240400 21005KT P6SM OVC020
      TEMPO 2404/2406 3SM SHRA OVC007
     FM240600 23005KT 2SM -SHRA OVC008
     FM240900 26005KT 5SM SHRA OVC008
     FM241100 28006KT P6SM BKN008
     FM241500 28006KT P6SM BKN035
     FM241900 27008G15KT P6SM SCT045=

USA.gov is the U.S. government's official web portal to all federal, state and local government web resources and services.